Time;durP1;ratioP1;P1;durP2;ratioP2;P2;SDS_P1;SDS_P2;PMS_P1;PMS_P2;Temp;Humidity;BMP_temperature;BMP_pressure;BME280_temperature;BME280_humidity;BME280_pressure;Samples;Min_cycle;Max_cycle;Signal;HPM_P1;HPM_P2
2023/06/06 00:02:06;;;;;;;0.70;0.60;;;;;;;-145.06;100.00;60892.56;5887473;23;20433;-91
2023/06/06 00:04:47;;;;;;;0.50;0.47;;;;;;;-145.06;100.00;60892.56;5887681;23;20005;-91
2023/06/06 00:07:28;;;;;;;1.58;0.60;;;;;;;-145.06;100.00;60892.56;5887123;23;20084;-91
2023/06/06 00:10:08;;;;;;;1.40;0.70;;;;;;;-145.06;100.00;60892.56;5888179;23;20088;-90
2023/06/06 00:12:47;;;;;;;1.15;0.70;;;;;;;-145.06;100.00;60892.56;5887688;23;20033;-92
2023/06/06 00:15:28;;;;;;;0.60;0.50;;;;;;;-145.06;100.00;60892.56;5887488;23;20009;-90
2023/06/06 00:18:07;;;;;;;0.88;0.65;;;;;;;17.32;100.00;60892.56;5885583;23;20010;-90
2023/06/06 00:20:48;;;;;;;0.50;0.47;;;;;;;-145.06;100.00;60892.56;5885284;23;20353;-91
2023/06/06 00:23:27;;;;;;;1.00;0.60;;;;;;;-145.06;100.00;60892.56;5857184;23;20101;-90
2023/06/06 00:26:06;;;;;;;1.27;0.75;;;;;;;-145.06;100.00;60892.56;5858378;23;20002;-92
2023/06/06 00:28:45;;;;;;;0.73;0.60;;;;;;;-145.06;100.00;60892.56;5857096;23;20014;-93
2023/06/06 00:31:24;;;;;;;0.90;0.63;;;;;;;-145.06;100.00;60892.56;5858670;23;20086;-91
2023/06/06 00:34:03;;;;;;;0.93;0.60;;;;;;;-145.06;100.00;60892.56;5856919;23;20250;-91
2023/06/06 00:36:42;;;;;;;1.00;0.90;;;;;;;-145.06;100.00;60892.56;5857136;23;20011;-91
2023/06/06 00:39:21;;;;;;;0.85;0.77;;;;;;;-145.06;100.00;60892.56;5856749;23;20011;-90
2023/06/06 00:42:00;;;;;;;1.08;0.68;;;;;;;-145.06;100.00;60892.56;5859158;23;20014;-90
2023/06/06 00:44:39;;;;;;;1.13;0.70;;;;;;;-145.06;100.00;60892.56;5879835;23;19999;-91
2023/06/06 00:47:18;;;;;;;1.47;0.83;;;;;;;-145.06;100.00;60892.56;5884543;23;20418;-91
2023/06/06 00:49:57;;;;;;;0.77;0.60;;;;;;;-145.06;100.00;60892.56;5861647;23;20255;-91
2023/06/06 00:52:37;;;;;;;1.85;0.70;;;;;;;-145.06;100.00;60892.56;5859273;23;20010;-90
2023/06/06 00:55:18;;;;;;;0.80;0.63;;;;;;;-145.06;100.00;60892.56;5859568;23;20010;-90
2023/06/06 00:57:59;;;;;;;0.95;0.77;;;;;;;-145.06;100.00;60892.56;5859031;23;20309;-91
2023/06/06 01:00:40;;;;;;;1.13;0.82;;;;;;;-145.06;100.00;60892.56;5858689;23;20455;-92
2023/06/06 01:03:19;;;;;;;1.17;0.73;;;;;;;-145.06;100.00;60892.56;5857981;23;20014;-91
2023/06/06 01:05:58;;;;;;;0.80;0.60;;;;;;;-145.06;100.00;60892.56;5859470;23;20011;-92
2023/06/06 01:08:37;;;;;;;0.80;0.60;;;;;;;-145.06;100.00;60892.56;5857901;23;20315;-91
2023/06/06 01:11:29;;;;;;;1.37;0.80;;;;;;;21.08;100.00;60892.56;5860413;23;20242;-91
2023/06/06 01:14:40;;;;;;;0.90;0.70;;;;;;;-145.06;100.00;60892.56;5860352;23;20278;-92
2023/06/06 01:17:25;;;;;;;0.93;0.82;;;;;;;-145.06;100.00;60892.56;5859340;23;20724;-91
2023/06/06 01:20:06;;;;;;;0.93;0.73;;;;;;;-145.06;100.00;60892.56;5859599;23;20019;-91
2023/06/06 01:22:47;;;;;;;0.73;0.68;;;;;;;-145.06;100.00;60892.56;5880225;23;20010;-91
2023/06/06 01:25:26;;;;;;;1.10;0.50;;;;;;;-145.06;100.00;60892.56;5887348;23;20009;-91
2023/06/06 01:28:12;;;;;;;1.60;0.90;;;;;;;-145.06;100.00;60892.56;5888319;23;20381;-90
2023/06/06 01:30:51;;;;;;;2.40;0.75;;;;;;;-145.06;100.00;60892.56;5888050;23;20317;-92
2023/06/06 01:33:30;;;;;;;1.30;1.00;;;;;;;-145.06;100.00;60892.56;5887651;23;20013;-91
2023/06/06 01:36:26;;;;;;;1.45;1.05;;;;;;;-145.06;100.00;60892.56;5885929;23;20010;-93
2023/06/06 01:39:15;;;;;;;2.15;0.90;;;;;;;-145.06;100.00;60892.56;5885083;23;20006;-92
2023/06/06 01:41:56;;;;;;;4.00;0.90;;;;;;;-145.06;100.00;60892.56;5886207;23;20322;-92
2023/06/06 01:44:37;;;;;;;1.23;0.88;;;;;;;-145.06;100.00;60892.56;5886342;23;20009;-90
2023/06/06 01:47:17;;;;;;;1.38;1.00;;;;;;;-145.06;100.00;60892.56;5889240;23;20009;-90
2023/06/06 01:49:57;;;;;;;1.35;1.00;;;;;;;-145.06;100.00;60892.56;5887502;23;20014;-92
2023/06/06 01:52:37;;;;;;;1.42;0.77;;;;;;;-145.06;100.00;60892.56;5888626;23;20002;-91
2023/06/06 01:55:16;;;;;;;1.15;0.93;;;;;;;-145.06;100.00;60892.56;5888225;23;20010;-90
2023/06/06 01:57:57;;;;;;;2.17;1.27;;;;;;;-145.06;100.00;60892.56;5889463;23;20014;-92
2023/06/06 02:00:36;;;;;;;1.92;0.90;;;;;;;15.85;100.00;60892.56;5888641;23;20010;-92
2023/06/06 02:03:15;;;;;;;0.90;0.75;;;;;;;15.81;100.00;60892.56;5889906;23;20013;-91
2023/06/06 02:05:55;;;;;;;1.50;1.03;;;;;;;15.76;100.00;60892.56;5888165;23;20481;-91
2023/06/06 02:08:34;;;;;;;;;;;;;;;-145.06;100.00;60892.56;5889152;23;20010;-91
2023/06/06 02:11:13;;;;;;;1.08;0.75;;;;;;;-145.06;100.00;60892.56;5889236;23;19912;-89
2023/06/06 02:13:52;;;;;;;1.10;0.83;;;;;;;15.65;100.00;60892.56;5888306;23;20512;-90
2023/06/06 02:16:32;;;;;;;1.53;1.00;;;;;;;-145.06;100.00;60892.56;5888636;23;20241;-90
2023/06/06 02:19:12;;;;;;;3.97;1.00;;;;;;;-145.06;100.00;60892.56;5886991;23;20393;-91
2023/06/06 02:21:51;;;;;;;1.17;0.90;;;;;;;-145.06;100.00;60892.56;5888949;23;20384;-90
2023/06/06 02:24:30;;;;;;;1.30;1.02;;;;;;;15.50;100.00;60892.56;5886855;23;20037;-90
2023/06/06 02:27:09;;;;;;;0.80;0.67;;;;;;;-145.06;100.00;60892.56;5885718;23;20425;-92
2023/06/06 02:29:48;;;;;;;1.85;1.00;;;;;;;-145.06;100.00;60892.56;5886696;23;20655;-91
2023/06/06 02:32:29;;;;;;;2.17;1.00;;;;;;;-145.06;100.00;60892.56;5889234;23;20038;-90
2023/06/06 02:35:08;;;;;;;2.35;1.20;;;;;;;-145.06;100.00;60892.56;5887073;23;20249;-91
2023/06/06 02:37:47;;;;;;;1.30;0.90;;;;;;;-145.06;100.00;60892.56;5887875;23;20425;-91
2023/06/06 02:40:27;;;;;;;1.42;0.93;;;;;;;15.88;100.00;60892.56;5886324;23;20013;-90
2023/06/06 02:43:06;;;;;;;1.58;1.20;;;;;;;-145.06;100.00;60892.56;5887552;23;20014;-91
2023/06/06 02:45:46;;;;;;;1.92;1.10;;;;;;;-145.06;100.00;60892.56;5888264;23;20010;-92
2023/06/06 02:48:26;;;;;;;1.92;1.00;;;;;;;-145.06;100.00;60892.56;5886327;23;20009;-90
2023/06/06 02:51:06;;;;;;;;;;;;;;;-145.06;100.00;60892.56;5887903;23;20006;-90
2023/06/06 02:53:46;;;;;;;1.08;0.82;;;;;;;187.52;100.00;60892.56;5886205;23;19983;-91
2023/06/06 02:56:25;;;;;;;1.57;1.23;;;;;;;-145.06;100.00;60892.56;5886276;23;20448;-92
2023/06/06 02:59:07;;;;;;;1.42;1.13;;;;;;;-145.06;100.00;60892.56;5885556;23;20349;-90
2023/06/06 03:01:48;;;;;;;1.55;1.20;;;;;;;-145.06;100.00;60892.56;5886043;23;20010;-90
2023/06/06 03:04:28;;;;;;;2.60;1.35;;;;;;;-145.06;100.00;60892.56;5886489;23;20001;-91
2023/06/06 03:07:10;;;;;;;1.98;1.20;;;;;;;-145.06;100.00;60892.56;5886478;23;20018;-91
2023/06/06 03:09:49;;;;;;;1.83;1.35;;;;;;;-145.06;100.00;60892.56;5885927;23;20010;-92
2023/06/06 03:12:28;;;;;;;2.33;1.30;;;;;;;-145.06;100.00;60892.56;5885859;23;20010;-90
2023/06/06 03:15:07;;;;;;;1.30;1.10;;;;;;;-145.06;100.00;60892.56;5886577;23;20720;-91
2023/06/06 03:17:48;;;;;;;2.03;0.98;;;;;;;-145.06;100.00;60892.56;5887073;23;20029;-92
2023/06/06 03:20:30;;;;;;;;;;;;;;;-145.06;100.00;60892.56;5886768;23;20113;-91
2023/06/06 03:23:10;;;;;;;0.93;0.80;;;;;;;-145.06;100.00;60892.56;5886976;23;19913;-92
2023/06/06 03:25:51;;;;;;;2.22;1.30;;;;;;;-145.06;100.00;60892.56;5885572;23;20006;-91
2023/06/06 03:28:31;;;;;;;1.33;1.00;;;;;;;-145.06;100.00;60892.56;5886795;23;20005;-91
2023/06/06 03:31:11;;;;;;;1.27;1.02;;;;;;;-145.06;100.00;60892.56;5886969;23;20010;-92
2023/06/06 03:33:50;;;;;;;1.60;1.08;;;;;;;-145.06;100.00;60892.56;5887461;23;20429;-90
2023/06/06 03:36:32;;;;;;;2.08;1.10;;;;;;;-145.06;100.00;60892.56;5886846;23;20014;-91
2023/06/06 03:39:11;;;;;;;1.33;1.10;;;;;;;14.54;100.00;60892.56;5887066;23;20014;-90
2023/06/06 03:41:51;;;;;;;1.50;1.20;;;;;;;14.49;100.00;60892.56;5888580;23;20010;-91
2023/06/06 03:44:29;;;;;;;1.53;1.23;;;;;;;-145.06;100.00;60892.56;5887247;23;20014;-91
2023/06/06 03:47:09;;;;;;;1.95;1.33;;;;;;;14.46;100.00;60892.56;5888389;23;20014;-90
2023/06/06 03:49:48;;;;;;;1.70;1.20;;;;;;;14.44;100.00;60892.56;5889641;23;20479;-91
2023/06/06 03:52:27;;;;;;;1.80;1.33;;;;;;;187.52;100.00;60892.56;5888634;23;20085;-91
2023/06/06 03:55:07;;;;;;;2.10;1.60;;;;;;;-145.06;100.00;60892.56;5888275;23;20553;-90
2023/06/06 03:57:46;;;;;;;2.03;1.50;;;;;;;-145.06;100.00;60892.56;5888637;23;20377;-90
2023/06/06 04:00:25;;;;;;;2.60;1.38;;;;;;;14.35;100.00;60892.56;5906410;23;20018;-90
2023/06/06 04:03:04;;;;;;;3.47;1.58;;;;;;;14.33;100.00;60892.56;5933750;23;20002;-91
2023/06/06 04:05:47;;;;;;;1.65;1.38;;;;;;;-145.06;100.00;60892.56;5887581;23;20002;-92
2023/06/06 04:08:26;;;;;;;2.40;1.70;;;;;;;-145.06;100.00;60892.56;5887415;23;20041;-91
2023/06/06 04:11:05;;;;;;;1.67;1.45;;;;;;;187.52;100.00;60892.56;5888945;23;20085;-92
2023/06/06 04:13:44;;;;;;;1.90;1.38;;;;;;;-145.06;100.00;60892.56;5888678;23;20010;-91
2023/06/06 04:16:23;;;;;;;1.50;1.30;;;;;;;-145.06;100.00;60892.56;5898073;23;20021;-91
2023/06/06 04:19:22;;;;;;;2.13;1.60;;;;;;;-145.06;100.00;60892.56;5901539;23;20013;-92
2023/06/06 04:28:39;;;;;;;2.30;1.60;;;;;;;-145.06;100.00;60892.56;5846739;23;20082;-93
2023/06/06 04:31:20;;;;;;;2.35;1.48;;;;;;;-145.06;100.00;60892.56;5894973;23;20272;-92
2023/06/06 04:34:01;;;;;;;3.55;1.65;;;;;;;-145.06;100.00;60892.56;5892548;23;20013;-90
2023/06/06 04:36:40;;;;;;;1.55;1.33;;;;;;;-145.06;100.00;60892.56;5892287;23;20010;-90
2023/06/06 04:39:22;;;;;;;1.98;1.65;;;;;;;-145.06;100.00;60892.56;5892588;23;20006;-90
2023/06/06 04:42:04;;;;;;;2.00;1.45;;;;;;;-145.06;100.00;60892.56;5892034;23;20006;-91
2023/06/06 04:44:45;;;;;;;1.92;1.30;;;;;;;-145.06;100.00;60892.56;5893940;23;20006;-91
2023/06/06 04:47:28;;;;;;;1.90;1.45;;;;;;;-145.06;100.00;60892.56;5893057;23;20006;-90
2023/06/06 04:50:08;;;;;;;3.00;1.60;;;;;;;-145.06;100.00;60892.56;5893871;23;20006;-91
2023/06/06 04:52:47;;;;;;;2.70;1.70;;;;;;;-145.06;100.00;60892.56;5894545;23;20449;-90
2023/06/06 04:55:27;;;;;;;1.83;1.27;;;;;;;-145.06;100.00;60892.56;5894620;23;20014;-91
2023/06/06 04:58:07;;;;;;;2.88;1.77;;;;;;;-145.06;100.00;60892.56;5895511;23;20014;-91
2023/06/06 05:00:46;;;;;;;2.67;1.87;;;;;;;-145.06;100.00;60892.56;5894405;23;20092;-90
2023/06/06 05:03:27;;;;;;;2.05;1.65;;;;;;;-145.06;100.00;60892.56;5895205;23;20010;-91
2023/06/06 05:06:06;;;;;;;2.08;1.50;;;;;;;14.58;100.00;60892.56;5893907;23;20006;-91
2023/06/06 05:08:46;;;;;;;3.47;1.10;;;;;;;21.08;100.00;60892.56;5894517;23;20448;-90
2023/06/06 05:11:25;;;;;;;1.70;1.47;;;;;;;14.32;100.00;60892.56;5894034;23;20322;-90
2023/06/06 05:14:04;;;;;;;1.75;1.38;;;;;;;14.42;100.00;60892.56;5892677;23;20009;-92
2023/06/06 05:16:46;;;;;;;3.45;1.80;;;;;;;14.39;100.00;60892.56;5893455;23;20010;-91
2023/06/06 05:19:26;;;;;;;2.78;1.50;;;;;;;14.41;100.00;60892.56;5892022;23;20550;-92
2023/06/06 05:22:05;;;;;;;2.37;1.67;;;;;;;14.58;100.00;60892.56;5891305;23;20045;-91
2023/06/06 05:24:44;;;;;;;4.30;1.95;;;;;;;14.49;100.00;60892.56;5891457;23;20230;-92
2023/06/06 05:27:24;;;;;;;3.53;1.95;;;;;;;-145.06;100.00;60892.56;5889584;23;20049;-91
2023/06/06 05:30:04;;;;;;;4.53;1.88;;;;;;;-145.06;100.00;60892.56;5892149;23;20437;-92
2023/06/06 05:32:43;;;;;;;;;;;;;;;-145.06;100.00;60892.56;5893125;23;20120;-91
2023/06/06 05:35:22;;;;;;;3.00;1.65;;;;;;;-145.06;100.00;60892.56;5891958;23;20335;-91
2023/06/06 05:38:01;;;;;;;1.87;1.50;;;;;;;-145.06;100.00;60892.56;5893890;23;20010;-90
2023/06/06 05:40:40;;;;;;;2.20;1.70;;;;;;;-145.06;100.00;60892.56;5893400;23;20237;-91
2023/06/06 05:43:20;;;;;;;4.95;1.80;;;;;;;-145.06;100.00;60892.56;5894017;23;20009;-92
2023/06/06 05:46:02;;;;;;;1.98;1.40;;;;;;;-145.06;100.00;60892.56;5893483;23;20313;-93
2023/06/06 05:48:41;;;;;;;3.85;2.10;;;;;;;-145.06;100.00;60892.56;5893598;23;20002;-91
2023/06/06 05:51:21;;;;;;;2.70;1.73;;;;;;;-145.06;100.00;60892.56;5893649;23;20010;-93
2023/06/06 05:54:00;;;;;;;2.45;2.00;;;;;;;-145.06;100.00;60892.56;5893986;23;20010;-91
2023/06/06 05:56:40;;;;;;;2.97;1.98;;;;;;;-145.06;100.00;60892.56;5894676;23;20041;-90
2023/06/06 05:59:19;;;;;;;;;;;;;;;-145.06;100.00;60892.56;5893995;23;20009;-91
2023/06/06 06:01:58;;;;;;;2.60;1.85;;;;;;;-145.06;100.00;60892.56;5894373;23;19905;-92
2023/06/06 06:04:37;;;;;;;3.42;2.00;;;;;;;-145.06;100.00;60892.56;5894099;23;20030;-91
2023/06/06 06:07:15;;;;;;;2.40;1.73;;;;;;;-145.06;100.00;60892.56;5893906;23;20518;-92
2023/06/06 06:09:55;;;;;;;2.90;2.00;;;;;;;-145.06;100.00;60892.56;5894009;23;20013;-91
2023/06/06 06:12:33;;;;;;;2.73;1.80;;;;;;;-145.06;100.00;60892.56;5894161;23;20010;-92
2023/06/06 06:15:13;;;;;;;2.40;1.73;;;;;;;-145.06;100.00;60892.56;5893779;23;20009;-92
2023/06/06 06:17:52;;;;;;;2.47;1.45;;;;;;;-145.06;100.00;60892.56;5893850;23;20038;-91
2023/06/06 06:20:31;;;;;;;2.85;1.98;;;;;;;-145.06;100.00;60892.56;5892789;23;20006;-92
2023/06/06 06:23:10;;;;;;;2.75;1.80;;;;;;;-145.06;100.00;60892.56;5893905;23;20041;-91
2023/06/06 06:25:49;;;;;;;3.55;2.10;;;;;;;-145.06;100.00;60892.56;5892577;23;20009;-90
2023/06/06 06:28:29;;;;;;;2.67;1.83;;;;;;;-145.06;100.00;60892.56;5892422;23;20010;-91
2023/06/06 06:31:08;;;;;;;5.05;1.80;;;;;;;-145.06;100.00;60892.56;5892803;23;20010;-92
2023/06/06 06:33:47;;;;;;;3.28;1.85;;;;;;;-145.06;100.00;60892.56;5893063;23;20006;-92
2023/06/06 06:36:26;;;;;;;3.55;2.08;;;;;;;15.60;100.00;60892.56;5892845;23;20010;-92
2023/06/06 06:39:05;;;;;;;2.75;1.77;;;;;;;15.63;100.00;60892.56;5893046;23;20014;-92
2023/06/06 06:41:45;;;;;;;3.60;2.10;;;;;;;-145.06;100.00;60892.56;5892851;23;20006;-91
2023/06/06 06:44:25;;;;;;;3.90;2.00;;;;;;;-145.06;100.00;60892.56;5894050;23;20005;-92
2023/06/06 06:47:04;;;;;;;4.05;1.80;;;;;;;-145.06;100.00;60892.56;5893520;23;20006;-92
2023/06/06 06:49:43;;;;;;;3.25;1.95;;;;;;;15.80;100.00;60892.56;5893820;23;20433;-92
2023/06/06 06:52:22;;;;;;;3.50;2.13;;;;;;;15.82;100.00;60892.56;5893725;23;20006;-91
2023/06/06 06:55:04;;;;;;;1.73;1.42;;;;;;;-145.06;100.00;60892.56;5893749;23;20006;-93
2023/06/06 06:57:43;;;;;;;2.88;1.85;;;;;;;-145.06;100.00;60892.56;5893889;23;20006;-92
2023/06/06 07:00:23;;;;;;;3.45;1.63;;;;;;;-145.06;100.00;60892.56;5893300;23;20014;-93
2023/06/06 07:03:04;;;;;;;2.83;1.63;;;;;;;-145.06;100.00;60892.56;5893456;23;20010;-92
2023/06/06 07:05:43;;;;;;;2.20;1.88;;;;;;;-145.06;100.00;60892.56;5894386;23;20012;-92
2023/06/06 07:08:22;;;;;;;2.42;1.63;;;;;;;-145.06;100.00;60892.56;5895480;23;20010;-92
2023/06/06 07:11:02;;;;;;;3.30;1.90;;;;;;;-145.06;100.00;60892.56;5917647;23;20001;-92
2023/06/06 07:13:42;;;;;;;2.70;1.58;;;;;;;-145.06;100.00;60892.56;5916859;23;20018;-93
2023/06/06 07:16:23;;;;;;;2.58;1.90;;;;;;;-145.06;100.00;60892.56;5893870;23;20013;-91
2023/06/06 07:19:02;;;;;;;2.35;1.77;;;;;;;-145.06;100.00;60892.56;5892882;23;20006;-92
2023/06/06 07:21:41;;;;;;;1.98;1.63;;;;;;;-145.06;100.00;60892.56;5893622;23;20314;-92
2023/06/06 07:24:20;;;;;;;3.70;1.80;;;;;;;-145.06;100.00;60892.56;5893468;23;20001;-91
2023/06/06 07:26:59;;;;;;;2.33;1.50;;;;;;;-145.06;100.00;60892.56;5893164;23;20014;-91
2023/06/06 07:29:39;;;;;;;1.77;1.43;;;;;;;-145.06;100.00;60892.56;5915192;23;20010;-93
2023/06/06 07:32:17;;;;;;;2.27;1.53;;;;;;;-145.06;100.00;60892.56;5892705;23;20234;-92
2023/06/06 07:34:56;;;;;;;3.27;1.97;;;;;;;-145.06;100.00;60892.56;5893153;23;20323;-91
2023/06/06 07:37:36;;;;;;;2.38;1.73;;;;;;;-145.06;100.00;60892.56;5893071;23;20009;-94
2023/06/06 07:40:16;;;;;;;2.92;1.83;;;;;;;-145.06;100.00;60892.56;5893096;23;20005;-93
2023/06/06 07:42:57;;;;;;;2.20;1.63;;;;;;;-145.06;100.00;60892.56;5893187;23;20495;-92
2023/06/06 07:45:36;;;;;;;1.98;1.50;;;;;;;-145.06;100.00;60892.56;5893277;23;20424;-90
2023/06/06 07:48:15;;;;;;;1.95;1.75;;;;;;;-145.06;100.00;60892.56;5893385;23;20014;-93
2023/06/06 07:50:54;;;;;;;2.15;1.58;;;;;;;-145.06;100.00;60892.56;5892524;23;20041;-92
2023/06/06 07:53:33;;;;;;;2.03;1.63;;;;;;;-145.06;100.00;60892.56;5892546;23;20087;-93
2023/06/06 07:56:16;;;;;;;1.90;1.67;;;;;;;17.99;100.00;60892.56;5893431;23;20006;-91
2023/06/06 07:58:55;;;;;;;1.90;1.70;;;;;;;17.99;100.00;60892.56;5893216;23;20233;-92
2023/06/06 08:01:36;;;;;;;2.60;1.80;;;;;;;-145.06;100.00;60892.56;5893723;23;20010;-91
2023/06/06 08:04:15;;;;;;;3.00;1.50;;;;;;;-145.06;100.00;60892.56;5893695;23;20144;-91
2023/06/06 08:06:53;;;;;;;2.70;2.00;;;;;;;-145.06;100.00;60892.56;5893046;23;20010;-93
2023/06/06 08:09:32;;;;;;;1.90;1.60;;;;;;;-145.06;100.00;60892.56;5893472;23;20013;-92
2023/06/06 08:12:11;;;;;;;2.17;1.80;;;;;;;-145.06;100.00;60892.56;5893404;23;20476;-91
2023/06/06 08:14:51;;;;;;;1.73;1.45;;;;;;;-145.06;100.00;60892.56;5893445;23;20246;-91
2023/06/06 08:17:30;;;;;;;2.55;1.55;;;;;;;-145.06;100.00;60892.56;5893234;23;20006;-93
2023/06/06 08:20:09;;;;;;;2.60;1.65;;;;;;;-145.06;100.00;60892.56;5893059;23;20005;-91
2023/06/06 08:22:49;;;;;;;2.30;1.58;;;;;;;-145.06;100.00;60892.56;5893522;23;20013;-92
2023/06/06 08:25:28;;;;;;;2.70;1.42;;;;;;;-145.06;100.00;60892.56;5893710;23;20002;-94
2023/06/06 08:28:07;;;;;;;3.38;1.73;;;;;;;-145.06;100.00;60892.56;5893477;23;20010;-92
2023/06/06 08:30:47;;;;;;;2.05;1.60;;;;;;;-145.06;100.00;60892.56;5892763;23;20009;-92
2023/06/06 08:33:26;;;;;;;1.75;1.30;;;;;;;19.52;100.00;60892.56;5893342;23;20010;-94
2023/06/06 08:36:06;;;;;;;1.65;1.35;;;;;;;19.63;100.00;60892.56;5892873;23;20010;-92
2023/06/06 08:38:45;;;;;;;2.05;1.58;;;;;;;19.75;100.00;60892.56;5893688;23;20006;-93
2023/06/06 08:41:26;;;;;;;2.20;1.60;;;;;;;-145.06;100.00;60892.56;5893443;23;20010;-93
2023/06/06 08:44:05;;;;;;;2.67;1.83;;;;;;;-145.06;100.00;60892.56;5893328;23;20014;-93
2023/06/06 08:46:46;;;;;;;1.95;1.48;;;;;;;-145.06;100.00;60892.56;5893779;23;20034;-92
2023/06/06 08:49:26;;;;;;;2.30;1.67;;;;;;;-145.06;100.00;60892.56;5893256;23;20088;-92
2023/06/06 08:52:06;;;;;;;2.50;1.70;;;;;;;-145.06;100.00;60892.56;5893691;23;20030;-92
2023/06/06 08:54:49;;;;;;;3.47;1.70;;;;;;;-145.06;100.00;60892.56;5893846;23;20005;-92
2023/06/06 08:57:28;;;;;;;1.88;1.38;;;;;;;-145.06;100.00;60892.56;5894102;23;20318;-93
2023/06/06 09:00:18;;;;;;;2.17;1.40;;;;;;;-145.06;100.00;60892.56;5924953;23;20429;-93
2023/06/06 09:02:59;;;;;;;1.38;1.20;;;;;;;-145.06;100.00;60892.56;5894940;23;20261;-92
2023/06/06 09:05:38;;;;;;;1.42;1.33;;;;;;;-145.06;100.00;60892.56;5894947;23;20081;-92
2023/06/06 09:08:19;;;;;;;1.95;1.55;;;;;;;-145.06;100.00;60892.56;5895801;23;20001;-94
2023/06/06 09:10:58;;;;;;;2.70;1.63;;;;;;;-145.06;100.00;60892.56;5895151;23;20036;-93
2023/06/06 09:13:45;;;;;;;1.38;1.27;;;;;;;-145.06;100.00;60892.56;5895746;23;20010;-93
2023/06/06 09:16:26;;;;;;;1.75;1.55;;;;;;;-145.06;100.00;60892.56;5894811;23;20006;-94
2023/06/06 09:19:08;;;;;;;3.05;1.63;;;;;;;-145.06;100.00;60892.56;5895013;23;20084;-92
2023/06/06 09:21:47;;;;;;;1.52;1.25;;;;;;;-145.06;100.00;60892.56;5894919;23;20018;-93
2023/06/06 09:24:27;;;;;;;2.30;1.70;;;;;;;-145.06;100.00;60892.56;5895183;23;20073;-92
2023/06/06 09:27:05;;;;;;;2.05;1.38;;;;;;;-145.06;100.00;60892.56;5895561;23;20006;-92
2023/06/06 09:29:44;;;;;;;1.90;1.30;;;;;;;-145.06;100.00;60892.56;5895048;23;20316;-92
2023/06/06 09:32:30;;;;;;;1.95;1.70;;;;;;;-145.06;100.00;60892.56;5895113;23;20010;-93
2023/06/06 09:35:09;;;;;;;1.83;1.45;;;;;;;21.92;100.00;60892.56;5895128;23;20005;-92
2023/06/06 09:37:49;;;;;;;1.60;1.50;;;;;;;-145.06;100.00;60892.56;5894729;23;20010;-94
2023/06/06 09:40:27;;;;;;;3.17;1.60;;;;;;;-145.06;100.00;60892.56;5895175;23;20009;-92
2023/06/06 09:43:07;;;;;;;1.90;1.70;;;;;;;-145.06;100.00;60892.56;5895027;23;20088;-93
2023/06/06 09:45:52;;;;;;;3.45;2.25;;;;;;;-145.06;100.00;60892.56;5894861;23;20002;-93
2023/06/06 09:48:32;;;;;;;2.83;1.75;;;;;;;-145.06;100.00;60892.56;5895442;23;20002;-92
2023/06/06 09:51:12;;;;;;;1.88;1.67;;;;;;;-145.06;100.00;60892.56;5894166;23;20014;-94
2023/06/06 09:53:51;;;;;;;2.20;1.50;;;;;;;41.86;100.00;60892.56;5895228;23;20002;-94
2023/06/06 09:56:34;;;;;;;3.70;1.45;;;;;;;-145.06;100.00;60892.56;5895337;23;20034;-93
2023/06/06 09:59:16;;;;;;;2.63;1.83;;;;;;;-145.06;100.00;60892.56;5895236;23;20009;-93
2023/06/06 10:02:08;;;;;;;3.08;1.80;;;;;;;-145.06;100.00;60892.56;5896059;23;20010;-93
2023/06/06 10:04:55;;;;;;;6.90;1.63;;;;;;;-145.06;100.00;60892.56;5894771;23;20010;-93
2023/06/06 10:07:44;;;;;;;2.47;1.65;;;;;;;-145.06;100.00;60892.56;5895685;23;20385;-93
2023/06/06 10:10:27;;;;;;;1.70;1.48;;;;;;;-145.06;100.00;60892.56;5895590;23;20013;-93
2023/06/06 10:13:13;;;;;;;2.28;1.75;;;;;;;-145.06;100.00;60892.56;5894907;23;20089;-92
2023/06/06 10:15:57;;;;;;;1.98;1.70;;;;;;;-145.06;100.00;60892.56;5895359;23;20014;-93
2023/06/06 10:18:46;;;;;;;2.72;1.50;;;;;;;-145.06;100.00;60892.56;5895081;23;20009;-93
2023/06/06 10:21:30;;;;;;;1.95;1.35;;;;;;;-145.06;100.00;60892.56;5895744;23;20006;-92
2023/06/06 10:24:12;;;;;;;1.65;1.20;;;;;;;-145.06;100.00;60892.56;5869217;23;20014;-92
2023/06/06 10:27:00;;;;;;;2.78;1.50;;;;;;;-145.06;100.00;60892.56;5911810;23;20009;-93
2023/06/06 10:29:49;;;;;;;2.17;1.40;;;;;;;-145.06;100.00;60892.56;5969915;23;20009;-93
2023/06/06 10:32:43;;;;;;;1.67;1.23;;;;;;;-145.06;100.00;60892.56;5951840;23;20032;-93
2023/06/06 10:35:24;;;;;;;2.17;1.35;;;;;;;-145.06;100.00;60892.56;5952217;23;19997;-93
2023/06/06 10:38:08;;;;;;;2.95;1.02;;;;;;;-145.06;100.00;60892.56;5951407;23;20436;-94
2023/06/06 10:40:54;;;;;;;2.03;1.50;;;;;;;-145.06;100.00;60892.56;5951778;23;20013;-92
2023/06/06 10:43:33;;;;;;;1.48;1.10;;;;;;;-145.06;100.00;60892.56;5952490;23;20435;-92
2023/06/06 10:46:15;;;;;;;1.30;0.95;;;;;;;-145.06;100.00;60892.56;5951495;23;20420;-94
2023/06/06 10:49:09;;;;;;;1.67;1.15;;;;;;;-145.06;100.00;60892.56;5952127;23;20013;-93
2023/06/06 10:52:14;;;;;;;1.55;1.25;;;;;;;31.47;100.00;60892.56;5952061;23;20008;-93
2023/06/06 10:54:50;;;;;;;1.00;0.80;;;;;;;-145.06;100.00;60892.56;5974028;23;20005;-94
2023/06/06 10:57:38;;;;;;;2.00;1.20;;;;;;;-145.06;100.00;60892.56;5951452;23;20017;-93
2023/06/06 11:00:20;;;;;;;1.48;1.10;;;;;;;-145.06;100.00;60892.56;5951333;23;20001;-93
2023/06/06 11:03:12;;;;;;;1.23;1.10;;;;;;;-145.06;100.00;60892.56;5952293;23;20013;-94
2023/06/06 11:06:02;;;;;;;1.50;0.88;;;;;;;-145.06;100.00;60892.56;5951683;23;20005;-94
2023/06/06 11:09:00;;;;;;;;;;;;;;;;;;;;;
2023/06/06 11:12:11;;;;;;;;;;;;;;;;;;;;;
2023/06/06 11:15:21;;;;;;;;;;;;;;;;;;;;;
2023/06/06 11:19:06;;;;;;;;;;;;;;;;;;;;;
2023/06/06 11:25:35;;;;;;;0.77;0.70;;;;;;;-145.06;100.00;60892.56;5978476;23;20025;-94
2023/06/06 11:28:46;;;;;;;;;;;;;;;;;;;;;
2023/06/06 11:31:47;;;;;;;1.65;0.80;;;;;;;-145.06;100.00;60892.56;5983702;23;20009;-94
2023/06/06 11:35:08;;;;;;;1.70;0.80;;;;;;;-145.06;100.00;60892.56;5951564;23;20001;-94
2023/06/06 11:38:03;;;;;;;0.90;0.70;;;;;;;-145.06;100.00;60892.56;5951405;23;20041;-92
2023/06/06 11:40:44;;;;;;;0.90;0.60;;;;;;;-145.06;100.00;60892.56;5952192;23;20013;-95
2023/06/06 11:43:41;;;;;;;;;;;;;;;;;;;;;
2023/06/06 11:47:26;;;;;;;;;;;;;;;;;;;;;
2023/06/06 11:50:38;;;;;;;1.13;0.70;;;;;;;-145.06;100.00;60892.56;5983825;23;20016;-92
2023/06/06 12:00:46;;;;;;;;;;;;;;;;;;;;;
2023/06/06 12:03:27;;;;;;;1.23;0.60;;;;;;;27.02;100.00;60892.56;5983197;23;20029;-93
2023/06/06 12:06:28;;;;;;;;;;;;;;;;;;;;;
2023/06/06 12:09:34;;;;;;;;;;;;;;;;;;;;;
2023/06/06 12:12:53;;;;;;;0.50;0.45;;;;;;;27.20;100.00;60892.56;5982720;23;20009;-93
2023/06/06 12:15:48;;;;;;;0.50;0.40;;;;;;;27.30;100.00;60892.56;5951620;23;19997;-93
2023/06/06 12:18:27;;;;;;;0.98;0.50;;;;;;;-145.06;100.00;60892.56;5951697;23;20005;-94
2023/06/06 12:21:20;;;;;;;0.75;0.50;;;;;;;-145.06;100.00;60892.56;5951623;23;20017;-93
2023/06/06 12:24:29;;;;;;;;;;;;;;;;;;;;;
2023/06/06 12:27:39;;;;;;;;;;;;;;;;;;;;;
2023/06/06 12:33:50;;;;;;;0.65;0.52;;;;;;;-145.06;100.00;60892.56;5977445;23;20005;-93
2023/06/06 12:37:25;;;;;;;;;;;;;;;;;;;;;
2023/06/06 12:40:33;;;;;;;;;;;;;;;;;;;;;
2023/06/06 12:43:32;;;;;;;;;;;;;;;;;;;;;
2023/06/06 12:46:27;;;;;;;;;;;;;;;;;;;;;
2023/06/06 12:49:27;;;;;;;;;;;;;;;;;;;;;
2023/06/06 12:52:39;;;;;;;;;;;;;;;;;;;;;
2023/06/06 12:55:31;;;;;;;0.80;0.32;;;;;;;-145.06;100.00;60892.56;5985125;23;20476;-94
2023/06/06 12:58:20;;;;;;;0.77;0.50;;;;;;;-145.06;100.00;60892.56;5952716;23;20436;-94
2023/06/06 13:01:03;;;;;;;0.88;0.60;;;;;;;-145.06;100.00;60892.56;5952620;23;20008;-93
2023/06/06 13:04:04;;;;;;;;;;;;;;;;;;;;;
2023/06/06 13:10:17;;;;;;;;;;;;;;;;;;;;;
2023/06/06 13:13:04;;;;;;;1.95;0.85;;;;;;;-145.06;100.00;60892.56;5985028;23;20009;-93
2023/06/06 13:15:53;;;;;;;;;;;;;;;;;;;;;
2023/06/06 13:33:28;;;;;;;0.70;0.50;;;;;;;-145.06;100.00;60892.56;5946477;23;20387;-92
2023/06/06 13:36:08;;;;;;;1.55;0.77;;;;;;;-145.06;100.00;60892.56;5923342;23;20006;-95